createdAt,value
2018-02-11T00:02:39.345Z,101691.22
2018-02-11T00:05:41.220Z,101690.70
2018-02-11T00:08:43.139Z,101684.71
2018-02-11T00:11:45.008Z,101674.34
2018-02-11T00:14:46.895Z,101669.87
2018-02-11T00:17:48.770Z,101657.19
2018-02-11T00:20:50.647Z,101645.65
2018-02-11T00:23:52.567Z,101648.73
2018-02-11T00:26:54.446Z,101648.92
2018-02-11T00:29:56.378Z,101651.53
2018-02-11T00:32:58.268Z,101646.81
2018-02-11T00:36:00.139Z,101642.28
2018-02-11T00:39:02.045Z,101639.04
2018-02-11T00:42:03.931Z,101624.62
2018-02-11T00:45:05.811Z,101610.60
2018-02-11T00:48:07.683Z,101608.00
2018-02-11T00:51:09.560Z,101605.29
2018-02-11T00:54:11.459Z,101607.93
2018-02-11T00:57:13.343Z,101609.21
2018-02-11T01:00:15.210Z,101608.62
2018-02-11T01:03:17.090Z,101602.88
2018-02-11T01:06:18.963Z,101595.94
2018-02-11T01:09:20.862Z,101603.77
2018-02-11T01:12:22.731Z,101600.39
2018-02-11T01:15:24.615Z,101586.92
2018-02-11T01:18:27.163Z,101579.16
2018-02-11T01:21:29.067Z,101571.53
2018-02-11T01:24:30.963Z,101579.58
2018-02-11T01:27:32.835Z,101578.61
2018-02-11T01:33:58.759Z,101556.90
2018-02-11T01:37:00.683Z,101552.75
2018-02-11T01:40:02.583Z,101542.48
2018-02-11T01:43:04.471Z,101540.62
2018-02-11T01:46:06.352Z,101536.99
2018-02-11T01:49:08.234Z,101531.45
2018-02-11T01:52:10.128Z,101520.81
2018-02-11T01:55:12.019Z,101519.69
2018-02-11T01:58:13.935Z,101506.31
2018-02-11T02:01:15.820Z,101501.42
2018-02-11T02:04:17.691Z,101494.75
2018-02-11T02:07:19.580Z,101493.15
2018-02-11T02:10:21.458Z,101486.50
2018-02-11T02:13:23.332Z,101485.63
2018-02-11T02:16:25.215Z,101475.70
2018-02-11T02:19:27.106Z,101470.43
2018-02-11T02:22:28.983Z,101463.23
2018-02-11T02:25:30.887Z,101462.90
2018-02-11T02:28:32.775Z,101465.25
2018-02-11T02:31:34.670Z,101459.72
2018-02-11T02:34:36.551Z,101449.15
2018-02-11T02:37:38.418Z,101441.54
2018-02-11T02:40:40.306Z,101437.38
2018-02-11T02:43:42.178Z,101432.68
2018-02-11T02:46:44.056Z,101437.77
2018-02-11T02:49:45.941Z,101423.96
2018-02-11T02:52:47.828Z,101423.65
2018-02-11T02:55:49.716Z,101420.58
2018-02-11T02:58:51.629Z,101419.57
2018-02-11T03:01:53.492Z,101410.80
2018-02-11T03:04:55.368Z,101408.09
2018-02-11T03:07:57.250Z,101404.11
2018-02-11T03:10:59.120Z,101392.97
2018-02-11T03:14:00.990Z,101385.86
2018-02-11T03:17:02.867Z,101370.40
2018-02-11T03:20:04.747Z,101369.51
2018-02-11T03:23:06.634Z,101359.75
2018-02-11T03:26:08.506Z,101346.09
2018-02-11T03:29:10.405Z,101349.82
2018-02-11T03:32:12.274Z,101343.41
2018-02-11T03:35:14.155Z,101348.03
2018-02-11T03:38:16.039Z,101339.02
2018-02-11T03:41:17.911Z,101331.66
2018-02-11T03:44:19.885Z,101330.27
2018-02-11T03:47:21.774Z,101330.92
2018-02-11T03:50:23.655Z,101324.43
2018-02-11T03:53:25.532Z,101316.46
2018-02-11T03:56:28.418Z,101310.72
2018-02-11T03:59:30.326Z,101308.18
2018-02-11T04:02:32.202Z,101302.30
2018-02-11T04:05:34.078Z,101305.09
2018-02-11T04:08:35.959Z,101302.78
2018-02-11T04:11:37.835Z,101294.72
2018-02-11T04:14:39.722Z,101288.16
2018-02-11T04:17:41.610Z,101280.99
2018-02-11T04:20:43.518Z,101265.60
2018-02-11T04:23:45.400Z,101258.33
2018-02-11T04:26:47.278Z,101259.00
2018-02-11T04:29:49.159Z,101248.53
2018-02-11T04:32:51.045Z,101247.49
2018-02-11T04:35:52.925Z,101244.45
2018-02-11T04:38:54.803Z,101240.21
2018-02-11T04:41:56.682Z,101233.26
2018-02-11T04:44:58.563Z,101225.51
2018-02-11T04:48:00.431Z,101216.52
2018-02-11T04:51:02.302Z,101213.03
2018-02-11T04:54:04.182Z,101205.05
2018-02-11T04:57:06.082Z,101198.02
2018-02-11T05:00:07.959Z,101196.01
2018-02-11T05:03:09.844Z,101193.61
2018-02-11T05:06:11.711Z,101184.08
2018-02-11T05:09:13.595Z,101174.74
2018-02-11T05:12:15.483Z,101176.99
2018-02-11T05:15:17.363Z,101171.10
2018-02-11T05:18:19.262Z,101164.20
2018-02-11T05:21:21.134Z,101166.69
2018-02-11T05:24:22.994Z,101163.52
2018-02-11T05:27:24.883Z,101158.27
2018-02-11T05:30:26.807Z,101150.53
2018-02-11T05:33:28.719Z,101153.36
2018-02-11T05:36:30.590Z,101155.37
2018-02-11T05:39:32.508Z,101147.60
2018-02-11T05:42:34.453Z,101142.18
2018-02-11T05:45:36.342Z,101136.53
2018-02-11T05:48:38.199Z,101134.29
2018-02-11T05:51:40.075Z,101128.87
2018-02-11T05:54:41.971Z,101118.15
2018-02-11T05:57:43.842Z,101114.45
2018-02-11T06:00:45.819Z,101114.23
2018-02-11T06:03:47.716Z,101097.09
2018-02-11T06:06:49.595Z,101093.53
2018-02-11T06:09:51.496Z,101093.45
2018-02-11T06:12:53.366Z,101086.15
2018-02-11T06:15:55.242Z,101074.87
2018-02-11T06:18:57.122Z,101079.95
2018-02-11T06:21:58.999Z,101076.39
2018-02-11T06:25:00.978Z,101057.21
2018-02-11T06:28:02.843Z,101055.48
2018-02-11T06:31:04.715Z,101060.21
2018-02-11T06:34:06.674Z,101058.14
2018-02-11T06:37:08.571Z,101060.46
2018-02-11T06:40:10.479Z,101064.71
2018-02-11T06:43:12.369Z,101057.67
2018-02-11T06:46:14.271Z,101050.18
2018-02-11T06:49:16.167Z,101050.29
2018-02-11T06:52:18.168Z,101041.71
2018-02-11T06:55:20.150Z,101040.59
2018-02-11T06:58:23.087Z,101033.61
2018-02-11T07:01:25.014Z,101035.38
2018-02-11T07:04:26.998Z,101026.38
2018-02-11T07:07:28.896Z,101023.09
2018-02-11T07:10:30.787Z,101019.23
2018-02-11T07:13:32.684Z,101010.22
2018-02-11T07:16:34.583Z,100993.77
2018-02-11T07:19:36.475Z,100996.42
2018-02-11T07:22:38.371Z,100999.26
2018-02-11T07:25:40.359Z,101000.46
2018-02-11T07:28:42.262Z,100999.54
2018-02-11T07:31:44.165Z,100986.72
2018-02-11T07:34:46.051Z,100988.07
2018-02-11T07:37:47.947Z,100982.17
2018-02-11T07:40:49.864Z,100980.59
2018-02-11T07:43:51.839Z,100976.78
2018-02-11T07:46:53.747Z,100974.93
2018-02-11T07:49:55.636Z,100972.37
2018-02-11T07:52:57.539Z,100970.68
2018-02-11T07:55:59.426Z,100962.86
2018-02-11T07:59:01.328Z,100957.32
2018-02-11T08:02:03.191Z,100953.93
2018-02-11T08:05:05.110Z,100952.39
2018-02-11T08:08:07.014Z,100952.00
2018-02-11T08:11:08.930Z,100954.36
2018-02-11T08:14:10.802Z,100965.26
2018-02-11T08:17:12.738Z,100968.54
2018-02-11T08:20:14.610Z,100967.24
2018-02-11T08:23:16.594Z,100970.18
2018-02-11T08:26:18.491Z,100968.92
2018-02-11T08:29:20.395Z,100969.05
2018-02-11T08:32:22.274Z,100962.94
2018-02-11T08:35:24.274Z,100956.56
2018-02-11T08:38:26.185Z,100966.98
2018-02-11T08:41:28.174Z,100972.99
2018-02-11T08:44:30.076Z,100975.52
2018-02-11T08:47:31.971Z,100976.56
2018-02-11T08:50:33.884Z,100979.64
2018-02-11T08:53:35.881Z,100966.29
2018-02-11T08:56:37.796Z,100968.08
2018-02-11T08:59:39.771Z,100966.92
2018-02-11T09:02:41.658Z,100965.31
2018-02-11T09:05:43.580Z,100968.30
2018-02-11T09:08:45.499Z,100967.81
2018-02-11T09:11:47.471Z,100962.50
2018-02-11T09:14:49.374Z,100967.57
2018-02-11T09:17:51.251Z,100959.55
2018-02-11T09:20:53.181Z,100956.02
2018-02-11T09:23:55.067Z,100959.15
2018-02-11T09:26:56.947Z,100955.23
2018-02-11T09:29:58.898Z,100951.39
2018-02-11T09:33:00.874Z,100939.99
2018-02-11T09:36:02.749Z,100937.70
2018-02-11T09:39:04.651Z,100933.36
2018-02-11T09:42:06.543Z,100931.80
2018-02-11T09:45:08.423Z,100929.33
2018-02-11T09:48:10.302Z,100924.57
2018-02-11T09:51:12.175Z,100920.92
2018-02-11T09:54:14.059Z,100922.62
2018-02-11T09:57:15.988Z,100914.99
2018-02-11T10:00:17.911Z,100916.93
2018-02-11T10:03:19.826Z,100914.22
2018-02-11T10:06:21.770Z,100909.83
2018-02-11T10:09:23.679Z,100916.34
2018-02-11T10:12:26.120Z,100913.30
2018-02-11T10:15:28.100Z,100914.97
2018-02-11T10:18:30.053Z,100906.69
2018-02-11T10:21:31.971Z,100900.49
2018-02-11T10:24:33.879Z,100904.41
2018-02-11T10:27:35.814Z,100905.01
2018-02-11T10:30:37.738Z,100901.78
2018-02-11T10:33:39.688Z,100908.19
2018-02-11T10:36:41.593Z,100904.07
2018-02-11T10:39:43.467Z,100895.57
2018-02-11T10:42:45.346Z,100896.38
2018-02-11T10:45:47.283Z,100899.86
2018-02-11T10:48:49.220Z,100892.67
2018-02-11T10:51:51.188Z,100882.61
2018-02-11T10:54:53.179Z,100879.02
2018-02-11T10:57:55.120Z,100877.47
2018-02-11T11:00:57.031Z,100876.11
2018-02-11T11:03:58.980Z,100870.52
2018-02-11T11:07:00.915Z,100868.83
2018-02-11T11:10:02.883Z,100868.16
2018-02-11T11:13:04.870Z,100869.54
2018-02-11T11:16:06.872Z,100868.58
2018-02-11T11:19:08.814Z,100865.63
2018-02-11T11:22:10.730Z,100865.95
2018-02-11T11:25:12.783Z,100864.01
2018-02-11T11:28:14.719Z,100862.76
2018-02-11T11:31:16.607Z,100856.80
2018-02-11T11:34:18.515Z,100848.42
2018-02-11T11:37:20.407Z,100850.48
2018-02-11T11:40:22.303Z,100841.10
2018-02-11T11:43:24.232Z,100840.89
2018-02-11T11:46:26.130Z,100839.82
2018-02-11T11:49:28.123Z,100846.56
2018-02-11T11:52:30.040Z,100843.07
2018-02-11T11:55:31.974Z,100838.00
2018-02-11T11:58:33.891Z,100833.65
2018-02-11T12:01:35.878Z,100840.20
2018-02-11T12:04:37.855Z,100845.13
2018-02-11T12:07:39.791Z,100840.98
2018-02-11T12:10:41.858Z,100826.29
2018-02-11T12:13:43.775Z,100822.39
2018-02-11T12:16:45.740Z,100821.70
2018-02-11T12:19:47.743Z,100831.49
2018-02-11T12:22:49.670Z,100835.22
2018-02-11T12:25:51.663Z,100830.43
2018-02-11T12:28:53.600Z,100824.90
2018-02-11T12:31:55.612Z,100826.31
2018-02-11T12:34:57.571Z,100826.69
2018-02-11T12:37:59.499Z,100822.48
2018-02-11T12:41:01.468Z,100826.33
2018-02-11T12:44:03.362Z,100824.53
2018-02-11T12:47:05.297Z,100832.84
2018-02-11T12:50:07.276Z,100824.17
2018-02-11T12:53:09.255Z,100823.88
2018-02-11T12:56:11.230Z,100814.40
2018-02-11T12:59:13.159Z,100803.88
2018-02-11T13:02:15.042Z,100803.83
2018-02-11T13:05:16.919Z,100797.53
2018-02-11T13:08:18.807Z,100789.95
2018-02-11T13:11:20.698Z,100788.20
2018-02-11T13:14:22.595Z,100783.05
2018-02-11T13:17:24.559Z,100781.02
2018-02-11T13:20:26.438Z,100753.07
2018-02-11T13:23:28.319Z,100748.76
2018-02-11T13:26:30.196Z,100771.31
2018-02-11T13:29:32.132Z,100767.65
2018-02-11T13:32:33.998Z,100749.01
2018-02-11T13:35:35.921Z,100754.52
2018-02-11T13:38:37.735Z,100760.41
2018-02-11T13:41:39.624Z,100766.74
2018-02-11T13:44:41.607Z,100767.92
2018-02-11T13:47:43.498Z,100758.22
2018-02-11T13:50:45.461Z,100764.52
2018-02-11T13:53:47.391Z,100766.67
2018-02-11T13:56:49.302Z,100767.12
2018-02-11T13:59:51.186Z,100769.92
2018-02-11T14:02:53.077Z,100768.24
2018-02-11T14:05:54.951Z,100773.22
2018-02-11T14:08:56.878Z,100767.36
2018-02-11T14:11:58.775Z,100753.71
2018-02-11T14:15:00.657Z,100755.76
2018-02-11T14:18:02.539Z,100757.71
2018-02-11T14:21:04.419Z,100760.82
2018-02-11T14:24:06.330Z,100765.81
2018-02-11T14:27:08.280Z,100760.74
2018-02-11T14:30:10.187Z,100764.20
2018-02-11T14:33:12.103Z,100764.79
2018-02-11T14:36:14.015Z,100769.21
2018-02-11T14:39:15.915Z,100769.31
2018-02-11T14:42:17.854Z,100771.57
2018-02-11T14:45:19.830Z,100776.23
2018-02-11T14:48:21.727Z,100773.78
2018-02-11T14:51:23.947Z,100776.58
2018-02-11T14:54:25.843Z,100783.55
2018-02-11T14:57:27.798Z,100781.83
2018-02-11T15:00:29.728Z,100790.19
2018-02-11T15:03:31.635Z,100789.66
2018-02-11T15:06:33.530Z,100788.13
2018-02-11T15:09:35.450Z,100793.81
2018-02-11T15:12:37.383Z,100798.06
2018-02-11T15:15:39.334Z,100798.83
2018-02-11T15:18:41.259Z,100793.24
2018-02-11T15:21:43.261Z,100787.29
2018-02-11T15:24:45.159Z,100784.26
2018-02-11T15:27:47.134Z,100781.45
2018-02-11T15:30:49.043Z,100781.55
2018-02-11T15:33:50.939Z,100782.46
2018-02-11T15:36:52.818Z,100783.48
2018-02-11T15:39:54.688Z,100775.36
2018-02-11T15:42:56.588Z,100771.47
2018-02-11T15:45:58.495Z,100774.92
2018-02-11T15:49:00.440Z,100777.44
2018-02-11T15:52:02.335Z,100781.99
2018-02-11T15:55:04.227Z,100788.59
2018-02-11T15:58:06.104Z,100789.45
2018-02-11T16:01:07.991Z,100793.72
2018-02-11T16:04:09.876Z,100799.48
2018-02-11T16:07:11.769Z,100809.13
2018-02-11T16:10:13.672Z,100809.99
2018-02-11T16:13:15.618Z,100810.80
2018-02-11T16:16:17.460Z,100810.56
2018-02-11T16:19:19.359Z,100806.25
2018-02-11T16:22:21.267Z,100803.88
2018-02-11T16:25:23.144Z,100796.99
2018-02-11T16:28:25.018Z,100797.66
2018-02-11T16:31:26.887Z,100804.83
2018-02-11T16:34:28.766Z,100813.15
2018-02-11T16:37:30.648Z,100816.78
2018-02-11T16:40:32.536Z,100816.75
2018-02-11T16:43:34.428Z,100818.86
2018-02-11T16:46:36.314Z,100827.26
2018-02-11T16:49:38.202Z,100824.78
2018-02-11T16:52:40.094Z,100830.38
2018-02-11T16:55:41.975Z,100832.00
2018-02-11T16:58:43.891Z,100828.53
2018-02-11T17:01:45.763Z,100838.97
2018-02-11T17:04:48.607Z,100837.32
2018-02-11T17:07:50.487Z,100845.87
2018-02-11T17:10:52.387Z,100853.91
2018-02-11T17:13:54.263Z,100854.88
2018-02-11T17:16:56.211Z,100853.73
2018-02-11T17:19:58.127Z,100856.67
2018-02-11T17:23:00.055Z,100855.01
2018-02-11T17:26:01.998Z,100862.99
2018-02-11T17:29:03.916Z,100859.03
2018-02-11T17:32:05.928Z,100859.70
2018-02-11T17:35:07.887Z,100866.38
2018-02-11T17:38:09.742Z,100878.24
2018-02-11T17:41:11.705Z,100879.63
2018-02-11T17:44:13.630Z,100880.33
2018-02-11T17:47:15.508Z,100886.55
2018-02-11T17:50:17.376Z,100888.29
2018-02-11T17:53:19.339Z,100881.54
2018-02-11T17:56:21.228Z,100884.91
2018-02-11T17:59:23.402Z,100880.73
2018-02-11T18:02:25.314Z,100885.49
2018-02-11T18:05:27.262Z,100880.28
2018-02-11T18:08:29.187Z,100883.21
2018-02-11T18:11:31.098Z,100894.90
2018-02-11T18:14:33.085Z,100898.50
2018-02-11T18:17:34.983Z,100899.74
2018-02-11T18:20:36.932Z,100902.42
2018-02-11T18:23:38.850Z,100894.97
2018-02-11T18:26:40.786Z,100906.94
2018-02-11T18:29:42.729Z,100911.25
2018-02-11T18:32:44.674Z,100915.42
2018-02-11T18:35:46.586Z,100910.41
2018-02-11T18:38:48.498Z,100913.18
2018-02-11T18:41:50.451Z,100917.87
2018-02-11T18:44:52.395Z,100921.90
2018-02-11T18:47:54.331Z,100923.52
2018-02-11T18:50:56.251Z,100932.56
2018-02-11T18:53:58.187Z,100938.70
2018-02-11T18:57:00.095Z,100948.02
2018-02-11T19:00:02.039Z,100944.07
2018-02-11T19:03:03.986Z,100945.32
2018-02-11T19:06:05.962Z,100945.67
2018-02-11T19:09:07.843Z,100956.30
2018-02-11T19:12:09.815Z,100956.89
2018-02-11T19:15:11.819Z,100961.15
2018-02-11T19:18:13.751Z,100966.62
2018-02-11T19:21:15.713Z,100959.77
2018-02-11T19:24:17.619Z,100963.83
2018-02-11T19:27:19.575Z,100968.61
2018-02-11T19:30:21.498Z,100969.11
2018-02-11T19:33:23.416Z,100974.48
2018-02-11T19:36:25.355Z,100977.47
2018-02-11T19:39:27.279Z,100981.53
2018-02-11T19:42:29.215Z,100982.63
2018-02-11T19:45:31.122Z,100986.72
2018-02-11T19:48:33.052Z,100984.92
2018-02-11T19:51:35.015Z,100981.04
2018-02-11T19:54:37.008Z,100980.74
2018-02-11T19:57:39.003Z,100986.73
2018-02-11T20:00:40.897Z,100985.12
2018-02-11T20:03:42.787Z,100983.53
2018-02-11T20:06:44.710Z,100991.21
2018-02-11T20:09:46.695Z,100997.20
2018-02-11T20:12:48.682Z,100997.44
2018-02-11T20:15:50.587Z,101006.46
2018-02-11T20:18:52.479Z,101007.64
2018-02-11T20:21:54.371Z,101002.42
2018-02-11T20:24:56.274Z,100999.81
2018-02-11T20:27:58.351Z,101003.46
2018-02-11T20:31:00.271Z,101001.00
2018-02-11T20:34:02.162Z,101008.86
2018-02-11T20:37:04.066Z,101013.64
2018-02-11T20:40:06.397Z,101013.39
2018-02-11T20:43:08.386Z,101017.76
2018-02-11T20:46:10.376Z,101017.92
2018-02-11T20:49:12.258Z,101027.32
2018-02-11T20:52:14.173Z,101025.10
2018-02-11T20:55:16.081Z,101028.06
2018-02-11T20:58:17.996Z,101033.51
2018-02-11T21:01:19.854Z,101032.60
2018-02-11T21:04:21.754Z,101035.84
2018-02-11T21:07:23.667Z,101034.25
2018-02-11T21:10:25.659Z,101033.19
2018-02-11T21:13:27.586Z,101033.33
2018-02-11T21:16:29.564Z,101036.97
2018-02-11T21:19:31.574Z,101049.23
2018-02-11T21:22:33.579Z,101048.41
2018-02-11T21:25:36.487Z,101058.31
2018-02-11T21:28:38.379Z,101059.29
2018-02-11T21:31:40.300Z,101072.04
2018-02-11T21:34:42.190Z,101070.06
2018-02-11T21:37:44.095Z,101067.99
2018-02-11T21:40:45.983Z,101078.31
2018-02-11T21:43:47.877Z,101079.48
2018-02-11T21:46:49.799Z,101086.47
2018-02-11T21:49:51.674Z,101091.78
2018-02-11T21:52:53.579Z,101091.58
2018-02-11T21:55:55.470Z,101094.14
2018-02-11T21:58:57.386Z,101104.94
2018-02-11T22:01:59.294Z,101101.42
2018-02-11T22:05:01.210Z,101095.48
2018-02-11T22:08:03.111Z,101088.54
2018-02-11T22:11:05.115Z,101095.91
2018-02-11T22:14:07.354Z,101096.25
2018-02-11T22:17:09.313Z,101090.18
2018-02-11T22:20:11.238Z,101092.19
2018-02-11T22:23:13.162Z,101078.50
2018-02-11T22:26:15.066Z,101079.31
2018-02-11T22:29:16.964Z,101088.62
2018-02-11T22:32:18.878Z,101090.11
2018-02-11T22:35:20.779Z,101098.90
2018-02-11T22:38:22.770Z,101106.32
2018-02-11T22:41:24.675Z,101114.21
2018-02-11T22:44:26.570Z,101107.90
2018-02-11T22:47:28.478Z,101103.69
2018-02-11T22:50:30.431Z,101104.67
2018-02-11T22:53:32.358Z,101101.83
2018-02-11T22:56:35.312Z,101103.42
2018-02-11T22:59:37.292Z,101107.41
2018-02-11T23:02:39.203Z,101110.30
2018-02-11T23:05:41.146Z,101110.73
2018-02-11T23:08:43.147Z,101104.36
2018-02-11T23:11:45.058Z,101102.33
2018-02-11T23:14:47.054Z,101093.90
2018-02-11T23:17:49.026Z,101095.06
2018-02-11T23:20:50.963Z,101106.29
2018-02-11T23:23:52.881Z,101109.50
2018-02-11T23:26:55.008Z,101114.31
2018-02-11T23:29:56.971Z,101116.93
2018-02-11T23:32:59.156Z,101121.32
2018-02-11T23:36:01.129Z,101124.34
2018-02-11T23:39:03.023Z,101134.78
2018-02-11T23:42:04.939Z,101133.68
2018-02-11T23:45:06.919Z,101141.34
2018-02-11T23:48:08.911Z,101145.39
2018-02-11T23:51:10.811Z,101149.76
2018-02-11T23:54:12.707Z,101154.37
2018-02-11T23:57:14.622Z,101161.89
